Terminal Aerodrome Forecast
Issued by NWS

Home | Current Version | Previous Version | Text Only | Print | Product List | Glossary On
Versions: 1 2 3 4 5 6 7 8 9 10 11 12 13 14 15 16 17 18 19 20 21 22 23 24 25
660
FTUS41 KBUF 111130
TAFJHW
TAF
KJHW 111130Z 1112/1212 31013G20KT 3SM -SN OVC015
      TEMPO 1112/1116 1SM -SN
     FM112200 29012KT 4SM -SHSN OVC020
     FM120500 24006KT P6SM BKN035
      AMD LTD TO CLD VIS AND WIND=

USA.gov is the U.S. government's official web portal to all federal, state and local government web resources and services.